Time;durP1;ratioP1;P1;durP2;ratioP2;P2;SDS_P1;SDS_P2;PMS_P1;PMS_P2;Temp;Humidity;BMP_temperature;BMP_pressure;BME280_temperature;BME280_humidity;BME280_pressure;Samples;Min_cycle;Max_cycle;Signal;HPM_P1;HPM_P2
2022/11/15 00:01:26;;;;;;;26.33;21.13;;;;;;;8.78;100.00;100993.09;4974966;28;20317;-53
2022/11/15 00:03:53;;;;;;;26.97;21.70;;;;;;;8.48;100.00;100987.53;4979172;28;20238;-53
2022/11/15 00:06:19;;;;;;;26.37;20.93;;;;;;;8.89;100.00;100982.75;4982915;28;20321;-53
2022/11/15 00:08:46;;;;;;;25.43;20.90;;;;;;;9.03;100.00;100983.75;4975886;28;20238;-56
2022/11/15 00:11:13;;;;;;;28.80;21.40;;;;;;;9.01;100.00;100982.84;4983828;28;20261;-53
2022/11/15 00:13:40;;;;;;;29.33;21.73;;;;;;;8.89;100.00;100980.13;4987522;28;20895;-53
2022/11/15 00:16:06;;;;;;;26.40;21.97;;;;;;;8.58;100.00;100974.56;4982370;28;20337;-54
2022/11/15 00:18:34;;;;;;;29.20;21.90;;;;;;;8.56;100.00;100967.53;4980679;28;20447;-53
2022/11/15 00:21:07;;;;;;;25.10;21.43;;;;;;;8.40;100.00;100961.28;4981034;28;20259;-57
2022/11/15 00:23:34;;;;;;;27.87;22.07;;;;;;;8.47;100.00;100959.63;4986704;28;20230;-53
2022/11/15 00:26:00;;;;;;;28.87;22.03;;;;;;;8.22;100.00;100963.66;4978211;28;20257;-53
2022/11/15 00:28:27;;;;;;;28.03;21.50;;;;;;;8.01;100.00;100949.44;4982182;28;20986;-53
2022/11/15 00:30:54;;;;;;;28.63;24.07;;;;;;;7.76;100.00;100952.59;4972552;28;20249;-53
2022/11/15 00:33:20;;;;;;;26.40;22.17;;;;;;;7.49;100.00;100953.06;4972311;28;20791;-53
2022/11/15 00:35:48;;;;;;;29.30;23.53;;;;;;;7.30;100.00;100954.50;4978522;28;20229;-53
2022/11/15 00:38:15;;;;;;;26.77;21.83;;;;;;;7.37;100.00;100949.41;4979653;28;20258;-53
2022/11/15 00:40:42;;;;;;;33.17;25.23;;;;;;;7.18;100.00;100945.63;4973917;28;20314;-53
2022/11/15 00:43:08;;;;;;;33.43;23.57;;;;;;;7.44;100.00;100945.16;4981341;28;20329;-54
2022/11/15 00:45:35;;;;;;;30.43;23.63;;;;;;;7.45;100.00;100943.44;4976826;28;20249;-53
2022/11/15 00:48:02;;;;;;;30.13;23.90;;;;;;;7.26;100.00;100955.31;4981592;28;21031;-53
2022/11/15 00:50:28;;;;;;;28.93;24.23;;;;;;;7.46;100.00;100942.56;4969214;28;20292;-54
2022/11/15 00:52:56;;;;;;;33.40;25.57;;;;;;;7.20;100.00;100934.34;4985235;28;20253;-53
2022/11/15 00:55:23;;;;;;;26.57;23.03;;;;;;;7.23;100.00;100944.81;4984040;28;20246;-54
2022/11/15 00:57:49;;;;;;;34.90;24.47;;;;;;;7.31;100.00;100943.22;4980203;28;20253;-54
2022/11/15 01:00:17;;;;;;;29.73;24.20;;;;;;;7.25;100.00;100943.13;4978681;28;20317;-56
2022/11/15 01:02:43;;;;;;;30.40;23.77;;;;;;;7.20;100.00;100935.22;4981420;28;20899;-54
2022/11/15 01:05:10;;;;;;;27.03;22.47;;;;;;;7.27;100.00;100930.97;4979413;28;20329;-53
2022/11/15 01:07:37;;;;;;;32.50;24.53;;;;;;;7.24;100.00;100936.16;4982951;28;20442;-53
2022/11/15 01:10:06;;;;;;;28.70;23.53;;;;;;;7.25;100.00;100927.44;4978965;28;20238;-53
2022/11/15 01:12:32;;;;;;;27.87;22.90;;;;;;;7.23;100.00;100931.75;4975517;28;20231;-53
2022/11/15 01:14:59;;;;;;;26.83;22.43;;;;;;;7.30;100.00;100931.00;4980642;28;20241;-53
2022/11/15 01:17:26;;;;;;;30.90;23.57;;;;;;;7.31;100.00;100917.09;4982436;28;20265;-55
2022/11/15 01:19:52;;;;;;;33.70;26.77;;;;;;;7.20;100.00;100931.72;4988636;28;20321;-53
2022/11/15 01:22:19;;;;;;;29.73;23.20;;;;;;;7.13;100.00;100923.78;4970172;28;20332;-55
2022/11/15 01:24:46;;;;;;;31.20;24.00;;;;;;;7.17;100.00;100925.59;4986042;28;20336;-54
2022/11/15 01:27:13;;;;;;;29.87;24.00;;;;;;;7.20;100.00;100913.44;4980342;28;20320;-54
2022/11/15 01:29:40;;;;;;;30.67;23.67;;;;;;;7.11;100.00;100909.81;4977069;28;20260;-54
2022/11/15 01:32:07;;;;;;;30.50;24.70;;;;;;;7.05;100.00;100898.41;4975335;28;20441;-54
2022/11/15 01:34:33;;;;;;;30.13;23.23;;;;;;;7.02;100.00;100898.34;4980666;28;20325;-56
2022/11/15 01:37:00;;;;;;;29.97;23.40;;;;;;;6.96;100.00;100899.16;4977207;28;20385;-59
2022/11/15 01:39:27;;;;;;;34.73;24.13;;;;;;;6.89;100.00;100902.50;4985259;28;20721;-54
2022/11/15 01:41:53;;;;;;;31.00;24.70;;;;;;;7.02;100.00;100894.03;4977193;28;20237;-54
2022/11/15 01:44:44;;;;;;;32.07;25.73;;;;;;;7.11;100.00;100891.53;4978488;28;20239;-53
2022/11/15 01:47:13;;;;;;;34.40;25.60;;;;;;;7.00;100.00;100885.28;4974694;28;20234;-53
2022/11/15 01:49:45;;;;;;;35.93;25.73;;;;;;;7.01;100.00;100881.81;4978187;28;20323;-54
2022/11/15 01:52:16;;;;;;;35.73;25.57;;;;;;;7.09;100.00;100874.09;4977416;28;20253;-53
2022/11/15 01:54:43;;;;;;;27.90;22.73;;;;;;;6.94;100.00;100877.34;4985537;28;20329;-54
2022/11/15 01:57:11;;;;;;;29.10;23.33;;;;;;;6.92;100.00;100872.13;4971630;28;20318;-54
2022/11/15 01:59:41;;;;;;;30.70;25.37;;;;;;;6.84;100.00;100863.25;4976933;28;20365;-53
2022/11/15 02:02:08;;;;;;;32.07;25.30;;;;;;;6.95;100.00;100860.84;4980231;28;20603;-53
2022/11/15 02:04:37;;;;;;;33.83;25.10;;;;;;;6.88;100.00;100854.66;4984921;28;20242;-55
2022/11/15 02:07:05;;;;;;;34.13;25.43;;;;;;;6.82;100.00;100858.91;4979702;28;20303;-54
2022/11/15 02:09:32;;;;;;;30.93;24.70;;;;;;;6.90;100.00;100852.94;4983395;28;20318;-54
2022/11/15 02:12:00;;;;;;;29.13;23.87;;;;;;;6.82;100.00;100854.56;4981683;28;20336;-53
2022/11/15 02:14:28;;;;;;;28.23;23.30;;;;;;;6.83;100.00;100858.03;4981028;28;20240;-54
2022/11/15 02:17:02;;;;;;;33.47;25.47;;;;;;;6.96;100.00;100857.38;4975802;28;20360;-54
2022/11/15 02:19:47;;;;;;;28.37;23.73;;;;;;;6.90;100.00;100849.44;4980815;28;20230;-53
2022/11/15 02:22:22;;;;;;;29.93;24.20;;;;;;;7.07;100.00;100855.81;4981069;28;20230;-54
2022/11/15 02:25:02;;;;;;;29.67;22.83;;;;;;;6.92;100.00;100856.47;4986226;28;20240;-53
2022/11/15 02:27:43;;;;;;;35.77;25.20;;;;;;;6.89;100.00;100850.31;4982440;28;20265;-54
2022/11/15 02:30:31;;;;;;;34.13;24.57;;;;;;;6.90;100.00;100854.66;4987933;28;20761;-54
2022/11/15 02:33:01;;;;;;;30.83;23.30;;;;;;;6.86;100.00;100860.69;4987743;28;20230;-53
2022/11/15 02:35:34;;;;;;;28.10;23.37;;;;;;;6.87;100.00;100855.50;4987023;28;20233;-55
2022/11/15 02:38:06;;;;;;;32.73;24.67;;;;;;;7.00;100.00;100859.19;4987644;28;20226;-54
2022/11/15 02:40:41;;;;;;;30.70;23.73;;;;;;;7.17;100.00;100857.72;4983102;28;20264;-54
2022/11/15 02:46:01;;;;;;;29.57;21.50;;;;;;;7.79;100.00;100848.97;4985243;28;20767;-53
2022/11/15 02:48:28;;;;;;;29.50;22.87;;;;;;;8.03;100.00;100837.88;4975852;28;20281;-55
2022/11/15 02:50:56;;;;;;;28.67;21.67;;;;;;;8.00;100.00;100842.22;4970353;28;20230;-54
2022/11/15 02:53:26;;;;;;;30.93;23.50;;;;;;;7.74;100.00;100841.91;4971955;28;20265;-56
2022/11/15 02:55:53;;;;;;;28.13;23.53;;;;;;;7.64;100.00;100843.53;4976971;28;20259;-54
2022/11/15 02:58:59;;;;;;;28.23;21.80;;;;;;;7.40;100.00;100825.78;4978977;28;20241;-54
2022/11/15 03:01:40;;;;;;;28.27;22.80;;;;;;;7.35;100.00;100835.31;4986763;28;20750;-54
2022/11/15 03:04:19;;;;;;;28.90;23.00;;;;;;;7.72;100.00;100835.78;4990018;28;20288;-54
2022/11/15 03:06:51;;;;;;;28.57;21.83;;;;;;;7.72;100.00;100838.41;4987588;28;20328;-54
2022/11/15 03:09:23;;;;;;;28.67;22.23;;;;;;;7.60;100.00;100837.38;4975153;28;20226;-55
2022/11/15 03:11:55;;;;;;;29.30;23.33;;;;;;;7.86;100.00;100834.22;4980207;28;20707;-54
2022/11/15 03:14:25;;;;;;;25.43;20.67;;;;;;;7.76;100.00;100835.00;4971663;28;20626;-54
2022/11/15 03:16:59;;;;;;;32.10;24.60;;;;;;;7.49;100.00;100833.78;4977217;28;20284;-54
2022/11/15 03:19:33;;;;;;;28.43;21.30;;;;;;;7.73;100.00;100829.72;4979173;28;20267;-54
2022/11/15 03:22:01;;;;;;;27.87;22.80;;;;;;;7.52;100.00;100828.59;4979475;28;20229;-61
2022/11/15 03:24:30;;;;;;;28.37;20.90;;;;;;;7.80;100.00;100823.69;4980938;28;20226;-53
2022/11/15 03:26:58;;;;;;;28.07;23.03;;;;;;;7.56;100.00;100840.81;4982908;28;20317;-53
2022/11/15 03:29:28;;;;;;;28.73;22.93;;;;;;;7.61;100.00;100833.91;4986074;28;20238;-55
2022/11/15 03:32:00;;;;;;;27.87;22.37;;;;;;;7.25;100.00;100838.66;4984517;28;20258;-54
2022/11/15 03:34:30;;;;;;;25.33;22.57;;;;;;;7.70;100.00;100827.94;4989278;28;20237;-56
2022/11/15 03:36:57;;;;;;;24.10;20.27;;;;;;;7.53;100.00;100829.47;4989620;28;20374;-54
2022/11/15 03:39:25;;;;;;;30.20;21.33;;;;;;;7.34;100.00;100823.13;4979306;28;20237;-54
2022/11/15 03:41:59;;;;;;;30.70;22.57;;;;;;;7.52;100.00;100828.59;4983367;28;20241;-54
2022/11/15 03:44:34;;;;;;;28.07;22.93;;;;;;;7.48;100.00;100829.41;4980063;28;20253;-53
2022/11/15 03:47:07;;;;;;;27.63;22.40;;;;;;;7.43;100.00;100815.41;4974084;28;20236;-53
2022/11/15 03:49:36;;;;;;;28.03;22.87;;;;;;;7.42;100.00;100826.72;4978589;28;20234;-53
2022/11/15 03:52:05;;;;;;;27.47;21.53;;;;;;;7.22;100.00;100828.16;4975201;28;20258;-54
2022/11/15 03:54:32;;;;;;;30.37;22.77;;;;;;;7.21;100.00;100813.38;4984359;28;20250;-53
2022/11/15 03:56:59;;;;;;;32.97;23.27;;;;;;;7.23;100.00;100820.38;4977619;28;20237;-54
2022/11/15 03:59:26;;;;;;;28.73;23.40;;;;;;;7.07;100.00;100819.25;4975730;28;20240;-54
2022/11/15 04:01:53;;;;;;;30.03;22.23;;;;;;;7.23;100.00;100811.63;4981679;28;20240;-54
2022/11/15 04:04:21;;;;;;;26.93;22.63;;;;;;;7.02;100.00;100820.94;4975472;28;20234;-54
2022/11/15 04:06:48;;;;;;;29.13;22.07;;;;;;;6.95;100.00;100813.88;4970002;28;20230;-54
2022/11/15 04:09:15;;;;;;;26.33;22.17;;;;;;;6.91;100.00;100812.03;4972700;28;20252;-53
2022/11/15 04:11:42;;;;;;;31.10;24.40;;;;;;;6.87;100.00;100808.50;4981554;28;20681;-53
2022/11/15 04:14:09;;;;;;;31.77;23.73;;;;;;;6.78;100.00;100811.00;4979788;28;20230;-54
2022/11/15 04:16:36;;;;;;;32.03;24.27;;;;;;;6.66;100.00;100810.78;4983267;28;20257;-53
2022/11/15 04:24:36;;;;;;;27.93;22.53;;;;;;;6.95;100.00;100811.25;4956910;28;20242;-53
2022/11/15 04:27:03;;;;;;;30.10;22.47;;;;;;;6.81;100.00;100816.28;4982757;28;20957;-54
2022/11/15 04:29:36;;;;;;;23.70;20.97;;;;;;;6.93;100.00;100803.41;4981931;28;20262;-53
2022/11/15 04:32:04;;;;;;;26.30;22.03;;;;;;;6.87;100.00;100811.13;4975562;28;20241;-54
2022/11/15 04:34:31;;;;;;;32.10;23.17;;;;;;;6.89;100.00;100801.59;4982109;28;20230;-54
2022/11/15 04:37:15;;;;;;;32.30;24.43;;;;;;;6.67;100.00;100810.84;4978074;28;20463;-54
2022/11/15 04:39:44;;;;;;;29.90;23.40;;;;;;;6.45;100.00;100801.75;4980908;28;20304;-53
2022/11/15 04:42:11;;;;;;;27.10;21.87;;;;;;;6.42;100.00;100801.72;4978864;28;20241;-54
2022/11/15 04:44:38;;;;;;;34.27;24.63;;;;;;;6.97;100.00;100790.38;4981020;28;20230;-54
2022/11/15 04:47:05;;;;;;;29.17;22.00;;;;;;;6.75;100.00;100789.19;4980185;28;20234;-53
2022/11/15 04:49:35;;;;;;;27.63;21.90;;;;;;;7.16;100.00;100788.06;4978071;28;20648;-53
2022/11/15 04:52:04;;;;;;;27.40;22.20;;;;;;;7.31;100.00;100787.38;4981103;28;20665;-53
2022/11/15 04:54:31;;;;;;;24.40;20.27;;;;;;;7.58;100.00;100786.88;4983388;28;20322;-53
2022/11/15 04:56:58;;;;;;;27.40;19.83;;;;;;;7.72;100.00;100792.25;4980042;28;20230;-53
2022/11/15 04:59:25;;;;;;;26.13;21.60;;;;;;;7.41;100.00;100793.63;4978292;28;20341;-54
2022/11/15 05:01:52;;;;;;;25.47;19.87;;;;;;;7.24;100.00;100788.16;4977714;28;20709;-53
2022/11/15 05:04:21;;;;;;;26.47;21.63;;;;;;;7.18;100.00;100791.56;4981510;28;20240;-54
2022/11/15 05:06:49;;;;;;;27.27;20.27;;;;;;;7.26;100.00;100789.03;4982606;28;20245;-54
2022/11/15 05:09:18;;;;;;;28.33;19.63;;;;;;;7.04;100.00;100793.09;4975783;28;20235;-59
2022/11/15 05:11:45;;;;;;;26.97;20.77;;;;;;;6.91;100.00;100791.16;4975369;28;20229;-53
2022/11/15 05:14:13;;;;;;;29.10;22.13;;;;;;;6.74;100.00;100793.53;4978366;28;20325;-54
2022/11/15 05:16:40;;;;;;;26.23;20.37;;;;;;;6.77;100.00;100792.69;4975342;28;20230;-53
2022/11/15 05:19:07;;;;;;;25.97;20.23;;;;;;;6.64;100.00;100795.13;4979144;28;20620;-54
2022/11/15 05:21:34;;;;;;;27.67;21.63;;;;;;;6.65;100.00;100798.59;4978123;28;20230;-53
2022/11/15 05:24:02;;;;;;;29.47;20.57;;;;;;;6.73;100.00;100796.13;4971700;28;20769;-53
2022/11/15 05:26:31;;;;;;;27.73;20.93;;;;;;;6.83;100.00;100792.78;4980485;28;20636;-54
2022/11/15 05:28:59;;;;;;;31.43;22.90;;;;;;;6.93;100.00;100797.31;4974612;28;20659;-53
2022/11/15 05:31:27;;;;;;;23.80;20.97;;;;;;;7.02;100.00;100789.63;4973193;28;20325;-54
2022/11/15 05:33:55;;;;;;;25.60;20.53;;;;;;;6.83;100.00;100795.41;4976298;28;20320;-54
2022/11/15 05:36:27;;;;;;;29.13;21.97;;;;;;;6.66;100.00;100800.34;4981419;28;20233;-54
2022/11/15 05:38:54;;;;;;;25.43;21.17;;;;;;;6.50;100.00;100798.38;4977362;28;20254;-54
2022/11/15 05:41:23;;;;;;;25.53;19.97;;;;;;;6.48;100.00;100795.72;4977169;28;20654;-53
2022/11/15 05:43:52;;;;;;;27.17;21.77;;;;;;;6.47;100.00;100793.97;4969600;28;20828;-54
2022/11/15 05:46:19;;;;;;;25.97;19.87;;;;;;;6.53;100.00;100790.56;4972325;28;20242;-54
2022/11/15 05:48:48;;;;;;;22.93;18.50;;;;;;;6.50;100.00;100794.03;4976006;28;20233;-54
2022/11/15 05:51:16;;;;;;;26.70;21.07;;;;;;;6.60;100.00;100785.50;4978597;28;20235;-53
2022/11/15 05:53:43;;;;;;;26.77;20.90;;;;;;;7.14;100.00;100792.38;4973773;28;20949;-53
2022/11/15 05:56:11;;;;;;;24.93;20.57;;;;;;;6.86;100.00;100787.63;4976175;28;20277;-53
2022/11/15 05:58:38;;;;;;;25.43;21.87;;;;;;;6.94;100.00;100791.22;4983351;28;20241;-54
2022/11/15 06:01:06;;;;;;;29.73;20.27;;;;;;;7.26;100.00;100796.88;4974579;28;20258;-53
2022/11/15 06:03:34;;;;;;;25.83;20.73;;;;;;;7.43;100.00;100791.00;4982670;28;20241;-54
2022/11/15 06:06:02;;;;;;;25.73;19.70;;;;;;;7.44;100.00;100793.66;4977494;28;20288;-53
2022/11/15 06:08:29;;;;;;;25.67;18.80;;;;;;;7.67;100.00;100799.16;4982606;28;20762;-54
2022/11/15 06:10:56;;;;;;;27.17;21.10;;;;;;;7.26;100.00;100793.41;4982311;28;20727;-53
2022/11/15 06:13:23;;;;;;;24.00;20.47;;;;;;;7.16;100.00;100793.28;4983459;28;20288;-54
2022/11/15 06:15:50;;;;;;;27.73;20.67;;;;;;;7.20;100.00;100793.34;4980073;28;20781;-53
2022/11/15 06:18:19;;;;;;;23.13;18.30;;;;;;;7.04;100.00;100798.31;4979010;28;20238;-54
2022/11/15 06:20:46;;;;;;;24.17;19.90;;;;;;;7.31;100.00;100796.97;4969841;28;20264;-54
2022/11/15 06:23:13;;;;;;;22.87;18.80;;;;;;;7.80;100.00;100800.19;4979918;28;20313;-53
2022/11/15 06:25:40;;;;;;;27.23;18.40;;;;;;;7.93;100.00;100815.13;4981469;28;20328;-53
2022/11/15 06:28:07;;;;;;;22.87;18.47;;;;;;;8.53;100.00;100818.34;4982188;28;20347;-54
2022/11/15 06:30:34;;;;;;;21.23;17.40;;;;;;;8.88;100.00;100810.81;4980392;28;20598;-53
2022/11/15 06:33:02;;;;;;;24.00;19.77;;;;;;;8.76;100.00;100808.09;4977416;28;20233;-53
2022/11/15 06:35:31;;;;;;;26.50;20.57;;;;;;;8.72;100.00;100812.41;4981997;28;20257;-54
2022/11/15 06:38:03;;;;;;;24.60;18.87;;;;;;;8.51;100.00;100809.63;4980268;28;20313;-54
2022/11/15 06:40:31;;;;;;;22.83;19.43;;;;;;;8.61;100.00;100806.22;4980444;28;20265;-53
2022/11/15 06:43:00;;;;;;;23.77;19.10;;;;;;;8.28;100.00;100806.75;4980578;28;20908;-53
2022/11/15 06:45:27;;;;;;;27.93;22.33;;;;;;;8.10;100.00;100808.34;4975162;28;20248;-54
2022/11/15 06:47:54;;;;;;;26.17;20.17;;;;;;;7.88;100.00;100820.31;4981233;28;20596;-53
2022/11/15 06:50:21;;;;;;;28.03;21.27;;;;;;;7.59;100.00;100822.59;4979524;28;20311;-54
2022/11/15 06:52:50;;;;;;;25.30;20.40;;;;;;;7.41;100.00;100822.34;4982091;28;20312;-53
2022/11/15 06:55:17;;;;;;;23.40;20.53;;;;;;;7.18;100.00;100828.13;4981295;28;20246;-54
2022/11/15 06:57:48;;;;;;;27.43;21.50;;;;;;;7.35;100.00;100819.66;4978817;28;20238;-53
2022/11/15 07:00:17;;;;;;;26.03;21.33;;;;;;;7.40;100.00;100825.78;4978307;28;20717;-54
2022/11/15 07:02:44;;;;;;;27.97;21.93;;;;;;;7.48;100.00;100820.69;4976900;28;20230;-54
2022/11/15 07:05:12;;;;;;;23.97;19.07;;;;;;;7.47;100.00;100821.53;4974902;28;20234;-54
2022/11/15 07:07:39;;;;;;;26.07;21.07;;;;;;;7.62;100.00;100826.97;4979096;28;20237;-54
2022/11/15 07:10:08;;;;;;;28.10;21.53;;;;;;;7.70;100.00;100832.28;4977690;28;20297;-53
2022/11/15 07:12:35;;;;;;;27.13;20.90;;;;;;;7.34;100.00;100833.56;4980219;28;20341;-53
2022/11/15 07:15:02;;;;;;;28.10;20.20;;;;;;;7.76;100.00;100833.25;4975728;28;20245;-54
2022/11/15 07:17:29;;;;;;;24.03;20.13;;;;;;;7.81;100.00;100839.38;4976937;28;20727;-54
2022/11/15 07:19:56;;;;;;;24.80;18.70;;;;;;;8.09;100.00;100840.56;4975076;28;20256;-54
2022/11/15 07:22:23;;;;;;;28.33;22.67;;;;;;;7.84;100.00;100846.41;4979428;28;20230;-53
2022/11/15 07:24:51;;;;;;;27.07;20.77;;;;;;;8.05;100.00;100841.41;4978108;28;20280;-54
2022/11/15 07:27:19;;;;;;;27.07;21.43;;;;;;;8.06;100.00;100843.16;4976972;28;20238;-53
2022/11/15 07:29:46;;;;;;;26.67;20.67;;;;;;;7.98;100.00;100839.59;4985286;28;20233;-54
2022/11/15 07:32:13;;;;;;;23.70;20.10;;;;;;;8.03;100.00;100840.50;4979539;28;20262;-54
2022/11/15 07:34:40;;;;;;;26.47;20.73;;;;;;;8.44;100.00;100844.44;4980451;28;20222;-54
2022/11/15 07:37:07;;;;;;;23.23;19.77;;;;;;;8.45;100.00;100841.84;4983837;28;20232;-55
2022/11/15 07:39:34;;;;;;;24.70;20.43;;;;;;;8.28;100.00;100839.06;4977473;28;20595;-54
2022/11/15 07:44:47;;;;;;;23.30;19.80;;;;;;;8.05;100.00;100836.19;4981348;28;20274;-53
2022/11/15 07:47:14;;;;;;;25.17;18.67;;;;;;;8.23;100.00;100839.84;4977003;28;20238;-53
2022/11/15 07:49:41;;;;;;;25.37;19.53;;;;;;;8.30;100.00;100836.44;4981595;28;20283;-54
2022/11/15 07:52:08;;;;;;;23.20;18.17;;;;;;;8.51;100.00;100841.91;4981433;28;20283;-54
2022/11/15 07:54:35;;;;;;;23.20;18.93;;;;;;;8.84;100.00;100833.47;4978984;28;20226;-53
2022/11/15 07:57:02;;;;;;;23.87;19.87;;;;;;;8.98;100.00;100836.16;4986215;28;20671;-53
2022/11/15 07:59:29;;;;;;;25.27;20.37;;;;;;;8.88;100.00;100830.84;4978577;28;21046;-53
2022/11/15 08:01:57;;;;;;;25.07;20.00;;;;;;;8.82;100.00;100829.94;4975908;28;20391;-54
2022/11/15 08:04:24;;;;;;;23.03;19.00;;;;;;;8.80;100.00;100831.66;4978019;28;20744;-53
2022/11/15 08:06:51;;;;;;;28.17;19.13;;;;;;;8.75;100.00;100835.13;4981315;28;20584;-53
2022/11/15 08:09:18;;;;;;;27.90;19.90;;;;;;;8.52;100.00;100833.19;4977167;28;20230;-54
2022/11/15 08:11:45;;;;;;;23.83;20.33;;;;;;;8.27;100.00;100832.03;4972644;28;20382;-53
2022/11/15 08:14:12;;;;;;;23.57;19.50;;;;;;;8.21;100.00;100828.47;4976575;28;20875;-54
2022/11/15 08:16:39;;;;;;;24.83;18.43;;;;;;;8.25;100.00;100828.56;4982290;28;20250;-54
2022/11/15 08:19:08;;;;;;;25.70;20.43;;;;;;;8.06;100.00;100822.25;4984527;28;20238;-55
2022/11/15 08:21:35;;;;;;;25.47;19.13;;;;;;;8.03;100.00;100824.81;4981622;28;20225;-53
2022/11/15 08:24:02;;;;;;;25.80;18.37;;;;;;;8.07;100.00;100824.03;4984906;28;20244;-53
2022/11/15 08:26:29;;;;;;;21.60;19.27;;;;;;;8.21;100.00;100820.63;4982773;28;20743;-53
2022/11/15 08:28:57;;;;;;;24.20;18.80;;;;;;;8.21;100.00;100820.63;4979390;28;20226;-54
2022/11/15 08:31:23;;;;;;;25.00;19.73;;;;;;;8.21;100.00;100815.41;4973866;28;20234;-53
2022/11/15 08:33:51;;;;;;;24.87;19.80;;;;;;;8.20;100.00;100821.50;4974998;28;21179;-53
2022/11/15 08:36:19;;;;;;;20.03;17.77;;;;;;;8.18;100.00;100825.84;4980383;28;20744;-55
2022/11/15 08:38:46;;;;;;;24.80;19.50;;;;;;;8.21;100.00;100815.41;4981282;28;20750;-53
2022/11/15 08:41:15;;;;;;;25.23;17.53;;;;;;;8.32;100.00;100819.03;4981480;28;20245;-53
2022/11/15 08:43:42;;;;;;;22.93;17.27;;;;;;;8.36;100.00;100826.91;4979854;28;20615;-54
2022/11/15 08:46:10;;;;;;;24.80;17.97;;;;;;;8.37;100.00;100833.03;4981248;28;20238;-54
2022/11/15 08:48:37;;;;;;;24.63;19.67;;;;;;;8.37;100.00;100833.03;4975987;28;20300;-59
2022/11/15 08:51:04;;;;;;;23.70;18.70;;;;;;;8.32;100.00;100819.03;4984577;28;20767;-54
2022/11/15 08:53:32;;;;;;;21.80;18.47;;;;;;;8.30;100.00;100831.22;4975192;28;20231;-53
2022/11/15 08:55:59;;;;;;;21.87;16.83;;;;;;;8.47;100.00;100829.66;4978616;28;20668;-54
2022/11/15 08:58:26;;;;;;;22.97;18.33;;;;;;;8.49;100.00;100833.16;4974516;28;20312;-54
2022/11/15 09:00:53;;;;;;;21.20;18.03;;;;;;;8.46;100.00;100827.91;4978327;28;20236;-54
2022/11/15 09:03:20;;;;;;;24.90;19.77;;;;;;;8.47;100.00;100832.28;4975805;28;20238;-53
2022/11/15 09:05:47;;;;;;;23.50;18.60;;;;;;;8.61;100.00;100814.09;4974425;28;20627;-54
2022/11/15 09:08:14;;;;;;;20.03;16.87;;;;;;;8.66;100.00;100819.34;4980441;28;20239;-53
2022/11/15 09:10:42;;;;;;;20.37;17.40;;;;;;;8.83;100.00;100825.59;4983546;28;20245;-53
2022/11/15 09:13:09;;;;;;;26.27;17.10;;;;;;;9.08;100.00;100821.41;4974849;28;20234;-54
2022/11/15 09:15:36;;;;;;;23.50;17.63;;;;;;;9.22;100.00;100819.75;4973301;28;20989;-53
2022/11/15 09:18:03;;;;;;;23.57;17.43;;;;;;;9.08;100.00;100824.88;4970891;28;20234;-53
2022/11/15 09:20:30;;;;;;;21.30;17.40;;;;;;;9.18;100.00;100820.59;4974329;28;20291;-54
2022/11/15 09:23:01;;;;;;;20.97;17.70;;;;;;;9.14;100.00;100826.69;4973122;28;20328;-55
2022/11/15 09:25:28;;;;;;;25.10;17.97;;;;;;;9.01;100.00;100824.84;4973744;28;20297;-54
2022/11/15 09:27:57;;;;;;;18.80;16.47;;;;;;;9.06;100.00;100829.25;4980464;28;20852;-54
2022/11/15 09:30:24;;;;;;;19.53;15.97;;;;;;;9.13;100.00;100831.94;4987309;28;20237;-54
2022/11/15 09:32:51;;;;;;;21.37;17.33;;;;;;;9.22;100.00;100821.47;4979717;28;20227;-54
2022/11/15 09:35:18;;;;;;;22.17;18.10;;;;;;;9.17;100.00;100829.31;4980458;28;20272;-54
2022/11/15 09:37:45;;;;;;;22.10;17.40;;;;;;;9.23;100.00;100820.59;4982995;28;20720;-55
2022/11/15 09:40:16;;;;;;;18.40;15.57;;;;;;;9.27;100.00;100827.66;4982223;28;20582;-54
2022/11/15 09:43:06;;;;;;;22.40;17.77;;;;;;;9.44;100.00;100828.63;4982280;28;20237;-54
2022/11/15 09:45:36;;;;;;;21.07;17.67;;;;;;;9.41;100.00;100828.59;4977615;28;20599;-53
2022/11/15 09:48:25;;;;;;;24.57;17.83;;;;;;;9.44;100.00;100820.75;4978557;28;20234;-54
2022/11/15 09:50:53;;;;;;;19.50;15.83;;;;;;;9.59;100.00;100829.56;4972298;28;20608;-54
2022/11/15 09:53:30;;;;;;;21.53;17.70;;;;;;;9.64;100.00;100819.94;4979599;28;20280;-54
2022/11/15 09:56:00;;;;;;;21.83;16.03;;;;;;;9.74;100.00;100816.50;4981795;28;20238;-54
2022/11/15 09:58:34;;;;;;;17.00;14.43;;;;;;;9.76;100.00;100809.53;4977643;28;20223;-53
2022/11/15 10:01:04;;;;;;;21.67;16.57;;;;;;;9.73;100.00;100813.00;4977815;28;20238;-55
2022/11/15 10:03:34;;;;;;;16.70;14.67;;;;;;;9.79;100.00;100815.66;4977636;28;20645;-53
2022/11/15 10:06:02;;;;;;;21.20;14.90;;;;;;;9.91;100.00;100803.44;4978043;28;20241;-54
2022/11/15 10:08:41;;;;;;;19.67;14.90;;;;;;;10.03;100.00;100804.34;4984305;28;20234;-54
2022/11/15 10:11:10;;;;;;;18.37;14.90;;;;;;;10.18;100.00;100797.38;4979818;28;20289;-54
2022/11/15 10:13:42;;;;;;;18.33;13.57;;;;;;;10.22;100.00;100794.78;4978545;28;20583;-54
2022/11/15 10:16:29;;;;;;;18.67;14.70;;;;;;;10.26;100.00;100790.44;4973275;28;20254;-55
2022/11/15 10:19:02;;;;;;;19.27;13.97;;;;;;;10.25;100.00;100793.91;4979830;28;20328;-53
2022/11/15 10:21:36;;;;;;;18.10;13.13;;;;;;;10.34;100.00;100775.56;4979692;28;20236;-53
2022/11/15 10:24:02;;;;;;;14.93;13.30;;;;;;;10.39;100.00;100776.44;4978963;28;20256;-54
2022/11/15 10:26:29;;;;;;;17.27;13.00;;;;;;;10.52;100.00;100778.19;4976246;28;20242;-54
2022/11/15 10:28:58;;;;;;;16.47;13.23;;;;;;;10.67;99.74;100777.31;4974819;28;20268;-53
2022/11/15 10:31:27;;;;;;;20.03;13.53;;;;;;;10.71;98.98;100778.19;4983228;28;20237;-53
2022/11/15 10:34:00;;;;;;;15.13;11.33;;;;;;;10.75;98.76;100764.19;4982171;28;20234;-55
2022/11/15 10:36:28;;;;;;;18.37;12.90;;;;;;;10.74;99.77;100759.81;4979594;28;20704;-53
2022/11/15 10:38:58;;;;;;;17.03;12.70;;;;;;;10.94;97.23;100749.25;4981640;28;20241;-53
2022/11/15 10:41:39;;;;;;;17.23;11.70;;;;;;;10.94;97.71;100755.38;4963588;28;20322;-54
2022/11/15 10:44:13;;;;;;;12.77;10.30;;;;;;;11.04;98.51;100750.13;4978001;28;20328;-53
2022/11/15 10:46:42;;;;;;;15.33;13.57;;;;;;;10.93;99.66;100745.75;4979170;28;20372;-52
2022/11/15 10:49:14;;;;;;;14.90;11.37;;;;;;;11.07;100.00;100750.97;4976374;28;20334;-52
2022/11/15 10:51:43;;;;;;;14.93;12.17;;;;;;;11.11;98.84;100741.34;4978094;28;20317;-55
2022/11/15 10:54:11;;;;;;;14.93;12.90;;;;;;;11.18;98.37;100732.53;4974524;28;20253;-53
2022/11/15 10:56:38;;;;;;;14.30;11.70;;;;;;;11.28;98.02;100728.13;4980442;28;20234;-54
2022/11/15 10:59:05;;;;;;;14.37;11.23;;;;;;;11.29;97.46;100730.75;4976407;28;22097;-53
2022/11/15 11:01:46;;;;;;;16.30;13.90;;;;;;;11.40;95.69;100725.44;4976919;28;20230;-53
2022/11/15 11:04:13;;;;;;;15.20;12.63;;;;;;;11.39;95.52;100721.94;4979477;28;20324;-53
2022/11/15 11:06:48;;;;;;;15.43;11.73;;;;;;;11.35;95.72;100717.59;4977637;28;20597;-52
2022/11/15 11:09:24;;;;;;;14.15;12.35;;;;;;;11.44;96.13;100720.19;4976682;28;20229;-53
2022/11/15 11:11:52;;;;;;;17.83;13.20;;;;;;;11.49;95.30;100716.66;4978393;28;20233;-54
2022/11/15 11:14:22;;;;;;;16.87;13.53;;;;;;;11.53;94.93;100715.75;4982496;28;20253;-54
2022/11/15 11:16:52;;;;;;;16.17;10.90;;;;;;;11.57;95.33;100712.22;4981080;28;20736;-53
2022/11/15 11:19:29;;;;;;;16.47;12.87;;;;;;;11.59;94.84;100713.09;4979688;28;20661;-52
2022/11/15 11:22:00;;;;;;;17.20;14.17;;;;;;;11.53;95.65;100718.38;4973682;28;20385;-53
2022/11/15 11:24:33;;;;;;;16.42;13.18;;;;;;;11.53;94.98;100715.75;4975263;28;20369;-55
2022/11/15 11:27:13;;;;;;;16.85;14.10;;;;;;;11.54;95.25;100704.34;4973996;28;20664;-54
2022/11/15 11:29:50;;;;;;;15.40;12.82;;;;;;;11.69;95.30;100710.41;4980517;28;20280;-53